Time;durP1;ratioP1;P1;durP2;ratioP2;P2;SDS_P1;SDS_P2;PMS_P1;PMS_P2;Temp;Humidity;BMP_temperature;BMP_pressure;BME280_temperature;BME280_humidity;BME280_pressure;Samples;Min_cycle;Max_cycle;Signal;HPM_P1;HPM_P2
2021/01/10 00:00:25;;;;;;;;;0.00;0.00;20.20;73.80;;;18.95;54.06;102226.41;5112977;28;8785;-57
2021/01/10 00:02:53;;;;;;;;;0.00;0.00;20.00;74.00;;;18.93;54.39;102221.19;5107388;28;8847;-57
2021/01/10 00:05:36;;;;;;;;;1.00;1.00;20.00;74.30;;;18.92;54.63;102211.44;5109371;28;8766;-57
2021/01/10 00:08:03;;;;;;;;;0.00;0.00;20.00;74.60;;;18.91;54.50;102215.09;5110221;28;8770;-56
2021/01/10 00:10:31;;;;;;;;;0.00;0.00;19.90;74.70;;;18.90;54.77;102209.88;5115280;28;8845;-57
2021/01/10 00:13:00;;;;;;;;;0.00;0.00;19.90;75.30;;;18.89;54.72;102208.16;5101721;28;8811;-57
2021/01/10 00:15:27;;;;;;;;;0.40;0.00;19.90;74.80;;;18.92;54.37;102207.91;5083895;28;8825;-57
2021/01/10 00:17:55;;;;;;;;;0.00;0.00;20.20;74.70;;;18.92;54.81;102211.44;5112645;28;8785;-57
2021/01/10 00:20:22;;;;;;;;;0.00;0.00;20.20;74.50;;;18.91;54.54;102208.91;5097505;28;8799;-57
2021/01/10 00:22:58;;;;;;;;;1.00;0.00;20.10;74.40;;;18.93;54.62;102214.97;5109755;27;8791;-57
2021/01/10 00:25:25;;;;;;;;;1.00;0.50;20.20;74.60;;;18.90;54.77;102199.16;5122060;27;8812;-57
2021/01/10 00:27:52;;;;;;;;;0.40;0.40;20.10;74.80;;;18.90;54.96;102196.47;5106398;28;8794;-58
2021/01/10 00:30:21;;;;;;;;;0.00;0.00;20.00;75.10;;;18.90;55.14;102207.19;5102481;28;8836;-57
2021/01/10 00:32:56;;;;;;;;;0.00;0.00;20.00;75.50;;;18.90;55.23;102217.91;5103334;28;8805;-58
2021/01/10 00:35:25;;;;;;;;;0.00;0.00;20.00;75.40;;;18.92;55.04;102211.44;5094839;28;8776;-58
2021/01/10 00:37:57;;;;;;;;;0.00;0.00;20.10;75.00;;;18.93;54.95;102206.94;5102379;28;8762;-58
2021/01/10 00:40:26;;;;;;;;;0.40;0.00;20.10;74.70;;;18.91;54.68;102204.41;5106095;28;8807;-58
2021/01/10 00:42:54;;;;;;;;;1.00;0.00;20.10;74.60;;;18.90;54.80;102208.03;5095239;28;8784;-57
2021/01/10 00:45:21;;;;;;;;;0.00;0.00;20.00;74.60;;;18.90;54.60;102205.34;5094641;28;8768;-58
2021/01/10 00:47:48;;;;;;;;;0.00;0.00;20.00;74.70;;;18.87;54.82;102209.13;5112545;28;8812;-55
2021/01/10 00:50:15;;;;;;;;;0.00;0.00;19.90;74.70;;;18.84;54.75;102206.69;5108954;28;8817;-57
2021/01/10 00:52:42;;;;;;;;;0.00;0.00;19.80;74.80;;;18.89;54.83;102208.16;5097613;28;8783;-57
2021/01/10 00:55:09;;;;;;;;;0.00;0.00;20.10;74.90;;;18.91;54.72;102211.59;5107492;27;8820;-54
2021/01/10 00:57:36;;;;;;;;;0.40;0.40;20.20;74.60;;;18.89;54.77;102214.38;5103277;28;8929;-57
2021/01/10 01:00:17;;;;;;;;;0.00;0.00;20.00;74.50;;;18.88;54.83;102223.38;5101570;28;8841;-59
2021/01/10 01:02:47;;;;;;;;;0.00;0.00;20.20;74.80;;;18.91;54.76;102227.66;5110745;28;8773;-58
2021/01/10 01:05:14;;;;;;;;;0.00;0.00;20.00;74.90;;;18.94;55.02;102232.75;5100860;28;8792;-58
2021/01/10 01:07:40;;;;;;;;;1.00;0.00;20.00;74.80;;;18.94;55.11;102232.75;5099637;28;8788;-58
2021/01/10 01:10:08;;;;;;;;;0.00;0.00;20.20;74.60;;;18.95;54.94;102234.44;5095700;28;8792;-59
2021/01/10 01:12:35;;;;;;;;;0.60;0.60;20.20;74.40;;;18.95;54.98;102237.13;5104622;28;8813;-56
2021/01/10 01:15:02;;;;;;;;;0.00;0.00;20.20;74.50;;;18.94;55.51;102230.09;5102281;28;8779;-58
2021/01/10 01:17:29;;;;;;;;;0.00;0.00;20.30;75.30;;;18.97;55.88;102233.34;5102447;28;8793;-58
2021/01/10 01:19:56;;;;;;;;;0.00;0.00;20.10;75.60;;;19.01;56.43;102234.84;5096512;28;9576;-58
2021/01/10 01:22:27;;;;;;;;;0.00;0.00;20.30;76.10;;;19.01;56.12;102224.13;5095207;28;8835;-59
2021/01/10 01:24:55;;;;;;;;;0.50;0.00;20.30;75.50;;;19.02;56.16;102227.66;5092531;28;8783;-58
2021/01/10 01:27:21;;;;;;;;;0.20;0.20;20.30;75.50;;;18.99;56.13;102233.25;5097044;28;8912;-57
2021/01/10 01:29:48;;;;;;;;;0.00;0.00;20.30;75.60;;;19.00;56.07;102222.41;5100717;28;8801;-55
2021/01/10 01:32:15;;;;;;;;;0.00;0.00;20.30;75.70;;;19.01;56.65;102210.72;5107625;28;8792;-58
2021/01/10 01:34:42;;;;;;;;;0.00;0.00;20.20;76.20;;;19.06;56.89;102205.00;5105956;28;8781;-58
2021/01/10 01:37:08;;;;;;;;;0.00;0.00;20.30;76.60;;;19.09;56.72;102215.47;5110571;28;8797;-56
2021/01/10 01:39:35;;;;;;;;;0.00;0.00;20.40;76.10;;;19.08;56.38;102224.47;5103837;28;8870;-58
2021/01/10 01:42:02;;;;;;;;;0.00;0.00;20.40;75.80;;;19.10;56.31;102235.91;5108681;28;8785;-56
2021/01/10 01:44:29;;;;;;;;;0.00;0.00;20.40;75.80;;;19.09;56.34;102236.91;5104560;28;8798;-57
2021/01/10 01:46:56;;;;;;;;;1.00;0.20;20.40;75.80;;;19.09;56.09;102252.97;5103386;28;8793;-57
2021/01/10 01:49:23;;;;;;;;;0.00;0.00;20.30;75.80;;;19.10;56.81;102254.66;5108116;28;8821;-57
2021/01/10 01:51:51;;;;;;;;;1.60;0.00;20.10;76.50;;;19.16;57.03;102254.19;5087663;28;8800;-57
2021/01/10 01:54:19;;;;;;;;;0.00;0.00;20.40;76.70;;;19.16;56.73;102254.19;5094541;28;9570;-57
2021/01/10 01:56:46;;;;;;;;;0.00;0.00;20.40;76.30;;;19.15;56.41;102263.19;5108947;28;8830;-59
2021/01/10 01:59:13;;;;;;;;;0.40;0.00;20.60;76.10;;;19.14;56.61;102266.84;5103775;28;9556;-57
2021/01/10 02:01:40;;;;;;;;;1.50;1.00;20.40;76.30;;;19.15;56.34;102268.56;5104400;28;8902;-57
2021/01/10 02:04:39;;;;;;;;;1.00;0.00;20.40;76.10;;;19.17;56.46;102276.47;5092864;28;8882;-56
2021/01/10 02:07:17;;;;;;;;;1.00;1.00;20.30;76.30;;;19.21;56.46;102273.44;5099992;28;9660;-57
2021/01/10 02:09:53;;;;;;;;;1.00;1.00;20.60;76.50;;;19.22;56.41;102276.97;5079844;28;8845;-57
2021/01/10 02:12:22;;;;;;;;;0.00;0.00;20.70;76.00;;;19.20;56.08;102279.75;5103592;28;8794;-57
2021/01/10 02:15:07;;;;;;;;;0.00;0.00;20.70;75.70;;;19.20;55.88;102276.22;5100087;28;8804;-58
2021/01/10 02:17:35;;;;;;;;;0.00;0.00;20.40;75.60;;;19.16;55.75;102278.31;5096352;28;8789;-57
2021/01/10 02:20:30;;;;;;;;;1.00;1.00;20.30;75.80;;;19.21;56.03;102291.31;5103957;28;8972;-59
2021/01/10 02:23:20;;;;;;;;;0.00;0.00;20.40;76.10;;;19.26;56.02;102284.66;5116649;27;8787;-58
2021/01/10 02:25:49;;;;;;;;;0.00;0.00;20.50;75.90;;;19.27;55.77;102288.19;5125378;28;8893;-57
2021/01/10 02:28:26;;;;;;;;;0.60;0.00;20.40;75.30;;;19.25;55.61;102282.94;5113588;28;8874;-57
2021/01/10 02:30:54;;;;;;;;;1.20;0.80;20.50;75.30;;;19.27;55.83;102280.97;5112544;28;8847;-58
2021/01/10 02:33:56;;;;;;;;;1.00;1.00;20.50;75.50;;;19.25;55.82;102284.75;5105236;28;8774;-58
2021/01/10 02:37:16;;;;;;;;;0.00;0.00;20.40;75.70;;;19.28;55.90;102287.19;5117815;28;8777;-58
2021/01/10 02:40:13;;;;;;;;;0.00;0.00;20.40;76.10;;;19.31;55.91;102289.66;5055304;28;8897;-59
2021/01/10 02:43:02;;;;;;;;;1.40;0.40;20.50;75.70;;;19.30;55.71;102288.78;5079852;28;8853;-59
2021/01/10 02:45:30;;;;;;;;;0.00;0.00;20.60;75.40;;;19.32;55.41;102295.84;5088014;28;8773;-59
2021/01/10 02:47:58;;;;;;;;;1.00;0.00;20.60;75.40;;;19.32;55.64;102285.13;5098224;27;8880;-59
2021/01/10 02:50:25;;;;;;;;;0.20;0.00;20.30;75.50;;;19.30;55.62;102288.78;5084822;28;8950;-58
2021/01/10 02:52:51;;;;;;;;;0.00;0.00;20.50;75.90;;;19.33;55.75;102292.19;5114760;28;8912;-58
2021/01/10 02:55:19;;;;;;;;;0.00;0.00;20.50;76.10;;;19.36;55.63;102297.28;5111541;28;9532;-58
2021/01/10 02:57:57;;;;;;;;;0.20;0.20;20.50;75.80;;;19.35;55.57;102293.78;5096724;28;8790;-58
2021/01/10 03:00:27;;;;;;;;;0.80;0.00;20.60;75.40;;;19.35;55.27;102291.09;5079523;28;8764;-58
2021/01/10 03:02:55;;;;;;;;;0.00;0.00;20.50;75.10;;;19.34;55.44;102299.28;5080671;27;8846;-58
2021/01/10 03:05:26;;;;;;;;;0.00;0.00;20.50;75.50;;;19.35;55.51;102306.31;5095336;27;8791;-58
2021/01/10 03:07:56;;;;;;;;;0.00;0.00;20.30;75.60;;;19.35;55.80;102315.22;5103112;28;8797;-58
2021/01/10 03:10:23;;;;;;;;;0.40;0.40;20.60;76.50;;;19.37;55.63;102309.75;5095735;28;8825;-55
2021/01/10 03:12:51;;;;;;;;;0.00;0.00;20.60;75.90;;;19.36;55.59;102297.28;5105446;28;8772;-56
2021/01/10 03:15:18;;;;;;;;;1.00;1.00;20.60;75.50;;;19.37;55.49;102293.66;5097679;28;9506;-56
2021/01/10 03:17:46;;;;;;;;;0.00;0.00;20.50;75.10;;;19.35;55.24;102279.53;5106894;28;8800;-57
2021/01/10 03:20:19;;;;;;;;;0.20;0.20;20.50;75.20;;;19.33;55.18;102270.75;5100867;28;8835;-55
2021/01/10 03:22:48;;;;;;;;;0.20;0.20;20.60;75.40;;;19.30;54.90;102280.72;5107520;28;8811;-59
2021/01/10 03:25:18;;;;;;;;;2.00;1.00;20.50;75.40;;;19.29;55.36;102264.78;5108620;28;8798;-59
2021/01/10 03:27:45;;;;;;;;;0.00;0.00;20.30;75.80;;;19.29;55.22;102254.94;5110552;28;8762;-58
2021/01/10 03:30:18;;;;;;;;;0.00;0.00;20.40;75.50;;;19.35;54.94;102263.44;5113223;28;8813;-58
2021/01/10 03:32:46;;;;;;;;;0.00;0.00;20.50;75.00;;;19.35;55.01;102255.41;5113138;28;8766;-58
2021/01/10 03:35:15;;;;;;;;;0.00;0.00;20.40;74.60;;;19.35;54.82;102258.09;5108847;28;8878;-58
2021/01/10 03:37:43;;;;;;;;;0.00;0.00;20.30;74.60;;;19.35;54.92;102266.97;5095924;28;8864;-58
2021/01/10 03:40:10;;;;;;;;;0.00;0.00;20.70;75.10;;;19.34;55.10;102267.97;5100506;28;8827;-58
2021/01/10 03:42:38;;;;;;;;;0.00;0.00;20.30;75.20;;;19.34;55.35;102267.13;5099657;28;8758;-58
2021/01/10 03:45:17;;;;;;;;;0.00;0.00;20.40;75.50;;;19.33;55.41;102265.41;5107408;28;8793;-58
2021/01/10 03:47:45;;;;;;;;;0.00;0.00;20.30;75.80;;;19.33;55.65;102278.78;5109758;28;8939;-56
2021/01/10 03:50:12;;;;;;;;;0.40;0.20;20.30;76.10;;;19.30;55.84;102283.41;5097475;28;8819;-57
2021/01/10 03:52:39;;;;;;;;;1.00;1.00;20.30;76.40;;;19.29;55.35;102281.72;5101589;28;8823;-57
2021/01/10 03:55:07;;;;;;;;;0.00;0.00;20.50;76.40;;;19.30;56.79;102283.41;5110958;28;8824;-57
2021/01/10 03:57:38;;;;;;;;;0.00;0.00;20.30;77.60;;;19.32;56.58;102290.50;5098050;28;8808;-57
2021/01/10 04:00:10;;;;;;;;;2.00;1.00;20.50;76.80;;;19.34;56.34;102291.22;5099319;28;8786;-57
2021/01/10 04:02:37;;;;;;;;;1.00;1.00;20.60;76.10;;;19.33;56.15;102294.88;5110276;28;8904;-58
2021/01/10 04:05:06;;;;;;;;;2.00;1.00;20.50;75.90;;;19.34;56.32;102288.56;5116217;28;8886;-57
2021/01/10 04:07:33;;;;;;;;;1.00;0.20;20.50;76.20;;;19.32;56.29;102303.91;5103391;28;8776;-56
2021/01/10 04:10:00;;;;;;;;;1.00;1.00;20.40;76.60;;;19.33;56.75;102305.59;5107093;28;9372;-57
2021/01/10 04:12:27;;;;;;;;;0.20;0.00;20.60;77.20;;;19.32;56.92;102312.78;5103031;28;8827;-57
2021/01/10 04:14:55;;;;;;;;;1.00;0.75;20.20;77.20;;;19.29;57.14;102319.22;5104425;28;8788;-57
2021/01/10 04:17:25;;;;;;;;;0.20;0.20;20.30;77.70;;;19.28;57.15;102333.63;5102807;28;8790;-57
2021/01/10 04:19:54;;;;;;;;;1.80;1.80;20.10;77.80;;;19.28;57.27;102341.66;5094371;28;8941;-57
2021/01/10 04:22:22;;;;;;;;;2.00;1.00;20.40;78.10;;;19.29;57.38;102342.50;5082366;28;8798;-57
2021/01/10 04:24:50;;;;;;;;;1.50;1.00;20.20;77.90;;;19.27;57.19;102339.09;5097284;28;8774;-57
2021/01/10 04:27:17;;;;;;;;;1.75;1.75;20.30;78.10;;;19.26;57.29;102343.59;5108668;28;8834;-56
2021/01/10 04:29:44;;;;;;;;;1.00;1.00;20.30;78.10;;;19.26;57.29;102338.22;5106514;28;8892;-57
2021/01/10 04:32:11;;;;;;;;;0.40;0.00;20.20;78.00;;;19.23;57.46;102330.44;5098216;28;8774;-58
2021/01/10 04:34:38;;;;;;;;;2.50;0.50;20.30;78.00;;;19.23;57.24;102333.13;5100611;28;8776;-57
2021/01/10 04:37:05;;;;;;;;;1.40;1.40;20.30;78.00;;;19.21;57.29;102335.06;5102190;28;8780;-58
2021/01/10 04:39:31;;;;;;;;;2.50;1.75;20.20;77.90;;;19.21;57.16;102337.75;5102314;28;8889;-58
2021/01/10 04:41:59;;;;;;;;;0.80;0.80;20.20;77.90;;;19.21;57.13;102344.91;5101500;28;8895;-57
2021/01/10 04:44:26;;;;;;;;;2.00;1.00;20.20;77.80;;;19.20;57.19;102352.09;5097024;28;8864;-57
2021/01/10 04:46:54;;;;;;;;;1.00;1.00;20.20;77.80;;;19.19;56.99;102344.19;5095363;28;8800;-57
2021/01/10 04:49:21;;;;;;;;;0.00;0.00;20.00;77.60;;;19.18;57.04;102354.03;5076579;28;8907;-57
2021/01/10 04:51:51;;;;;;;;;1.40;1.20;20.30;77.70;;;19.18;56.75;102347.81;5101660;28;8762;-58
2021/01/10 04:54:21;;;;;;;;;0.00;0.00;20.20;77.60;;;19.15;56.85;102348.06;5084063;28;8776;-57
2021/01/10 04:56:49;;;;;;;;;2.00;2.00;20.20;77.50;;;19.11;56.16;102344.78;5079586;28;9515;-58
2021/01/10 04:59:22;;;;;;;;;1.00;1.00;20.10;76.70;;;19.12;56.41;102354.50;5094120;28;8812;-57
2021/01/10 05:01:55;;;;;;;;;0.40;0.00;19.90;76.70;;;19.14;55.88;102352.59;5097574;28;8837;-58
2021/01/10 05:04:24;;;;;;;;;0.00;0.00;20.10;75.80;;;19.13;55.89;102366.06;5083013;28;9485;-57
2021/01/10 05:06:53;;;;;;;;;0.00;0.00;20.30;75.80;;;19.13;55.97;102369.59;5082011;28;8961;-57
2021/01/10 05:09:22;;;;;;;;;0.20;0.20;20.30;76.00;;;19.12;55.91;102375.09;5079908;28;8807;-57
2021/01/10 05:11:49;;;;;;;;;0.80;0.80;20.10;76.10;;;19.12;56.34;102375.94;5088955;28;8777;-58
2021/01/10 05:14:16;;;;;;;;;1.00;0.75;20.10;76.40;;;19.11;56.20;102373.38;5101598;28;8792;-57
2021/01/10 05:16:44;;;;;;;;;1.00;0.50;20.30;76.70;;;19.11;56.35;102387.66;5100550;28;8816;-57
2021/01/10 05:19:11;;;;;;;;;0.75;0.75;20.10;76.60;;;19.08;56.62;102390.53;5101411;28;8789;-57
2021/01/10 05:21:41;;;;;;;;;1.50;0.75;20.20;76.80;;;19.07;56.30;102395.03;5097998;28;8906;-57
2021/01/10 05:24:08;;;;;;;;;1.00;1.00;20.00;76.50;;;19.06;56.43;102395.19;5107605;28;8794;-56
2021/01/10 05:26:37;;;;;;;;;2.75;1.25;20.10;76.70;;;19.02;55.71;102404.41;5102447;28;8777;-56
2021/01/10 05:29:09;;;;;;;;;1.00;1.00;20.00;76.00;;;19.02;56.04;102401.72;5099221;28;8806;-57
2021/01/10 05:31:44;;;;;;;;;1.00;1.00;20.20;76.10;;;19.02;55.15;102391.88;5093854;28;8880;-57
2021/01/10 05:34:20;;;;;;;;;0.25;0.25;20.40;75.20;;;19.03;55.32;102365.94;5094119;28;8756;-57
2021/01/10 05:36:47;;;;;;;;;0.25;0.25;20.20;75.00;;;19.05;55.44;102374.72;5108042;28;8804;-57
2021/01/10 05:39:32;;;;;;;;;1.00;1.00;20.20;75.30;;;19.03;55.84;102373.97;5112829;28;9501;-57
2021/01/10 05:42:02;;;;;;;;;2.00;1.00;20.20;75.60;;;19.02;55.89;102377.63;5113375;28;8770;-56
2021/01/10 05:44:46;;;;;;;;;1.00;1.00;20.10;75.80;;;19.02;55.90;102374.94;5106990;28;8855;-57
2021/01/10 05:47:16;;;;;;;;;1.75;1.00;20.10;76.00;;;19.00;56.19;102371.53;5100547;28;8800;-57
2021/01/10 05:49:47;;;;;;;;;0.75;0.75;20.00;76.20;;;18.98;56.37;102382.38;5105388;28;8909;-57
2021/01/10 05:52:15;;;;;;;;;2.25;1.75;19.90;76.20;;;18.98;56.43;102390.41;5108616;28;8785;-57
2021/01/10 05:54:47;;;;;;;;;1.00;1.00;20.20;76.40;;;18.94;55.02;102393.44;5107396;27;8799;-57
2021/01/10 05:57:24;;;;;;;;;1.50;1.00;20.00;75.20;;;18.96;55.47;102404.88;5096890;28;8783;-57
2021/01/10 05:59:56;;;;;;;;;1.25;1.00;20.00;76.00;;;18.97;55.29;102399.41;5093494;28;8895;-57
2021/01/10 06:02:34;;;;;;;;;1.00;0.50;20.10;75.20;;;18.98;55.30;102390.41;5106802;27;8801;-57
2021/01/10 06:05:20;;;;;;;;;0.25;0.25;20.10;74.60;;;18.98;55.43;102406.47;5103746;28;8820;-57
2021/01/10 06:08:07;;;;;;;;;1.50;0.50;20.20;75.10;;;18.97;55.44;102415.47;5106632;28;8830;-57
2021/01/10 06:10:34;;;;;;;;;1.00;1.00;20.00;75.30;;;18.97;55.77;102411.94;5105891;28;8869;-57
2021/01/10 06:13:06;;;;;;;;;1.75;1.75;20.20;75.60;;;18.96;55.70;102412.94;5094549;28;8889;-57
2021/01/10 06:15:35;;;;;;;;;0.00;0.00;20.00;75.60;;;18.95;56.00;102424.59;5094962;28;8789;-57
2021/01/10 06:18:04;;;;;;;;;1.00;1.00;20.30;75.80;;;18.95;55.89;102428.13;5102516;27;8795;-57
2021/01/10 06:20:33;;;;;;;;;1.00;1.00;20.10;75.80;;;18.95;55.94;102435.31;5106104;28;8816;-57
2021/01/10 06:23:05;;;;;;;;;1.00;1.00;20.00;75.90;;;18.92;55.82;102423.00;5104774;28;8771;-58
2021/01/10 06:25:38;;;;;;;;;0.00;0.00;20.00;75.90;;;18.93;55.90;102445.25;5099166;28;8776;-57
2021/01/10 06:28:22;;;;;;;;;1.00;0.20;20.00;75.90;;;18.92;55.81;102443.56;5098470;28;8819;-57
2021/01/10 06:31:01;;;;;;;;;0.75;0.75;19.90;75.80;;;18.92;55.77;102440.88;5085519;28;8824;-56
2021/01/10 06:33:33;;;;;;;;;0.60;0.60;20.00;76.40;;;18.90;55.74;102443.66;5103965;28;8778;-57
2021/01/10 06:36:08;;;;;;;;;0.60;0.60;20.00;75.80;;;18.87;55.78;102436.72;5102237;28;8802;-57
2021/01/10 06:38:39;;;;;;;;;1.75;1.00;20.00;75.80;;;18.88;55.65;102440.28;5110630;28;8770;-57
2021/01/10 06:41:51;;;;;;;;;2.00;1.00;20.10;75.80;;;18.85;55.81;102422.63;5110813;28;8766;-57
2021/01/10 06:44:21;;;;;;;;;2.00;1.00;20.00;75.70;;;18.83;55.57;102408.50;5110391;28;8762;-57
2021/01/10 06:46:52;;;;;;;;;1.00;1.00;19.90;75.80;;;18.83;55.84;102394.25;5103913;28;8810;-58
2021/01/10 06:49:20;;;;;;;;;1.00;1.00;19.80;75.80;;;18.84;55.91;102398.63;5104714;28;9506;-57
2021/01/10 06:51:53;;;;;;;;;2.00;1.75;19.90;75.80;;;18.81;55.63;102389.00;5109277;28;8824;-59
2021/01/10 06:54:20;;;;;;;;;1.00;0.25;20.00;75.70;;;18.81;55.75;102391.69;5103814;28;8825;-59
2021/01/10 06:56:53;;;;;;;;;2.00;1.00;20.00;75.60;;;18.81;55.47;102388.16;5103702;28;9689;-59
2021/01/10 06:59:26;;;;;;;;;0.00;0.00;20.00;75.40;;;18.81;55.63;102402.38;5102464;28;8813;-58
2021/01/10 07:01:53;;;;;;;;;1.00;1.00;20.10;75.30;;;18.81;55.81;102404.22;5106530;28;8870;-58
2021/01/10 07:04:22;;;;;;;;;0.00;0.00;20.00;75.40;;;18.79;55.93;102412.34;5104439;28;8774;-58
2021/01/10 07:06:50;;;;;;;;;3.00;2.00;20.20;75.60;;;18.80;56.06;102411.41;5110332;28;9522;-58
2021/01/10 07:09:20;;;;;;;;;2.00;1.00;19.80;75.60;;;18.79;55.95;102409.69;5093218;28;8886;-58
2021/01/10 07:11:49;;;;;;;;;1.00;1.00;20.00;75.80;;;18.78;56.15;102389.25;5094892;28;8804;-58
2021/01/10 07:14:21;;;;;;;;;1.00;1.00;19.90;75.80;;;18.79;55.97;102374.88;5090430;28;8811;-58
2021/01/10 07:16:49;;;;;;;;;0.75;0.75;19.90;75.90;;;18.77;56.34;102360.75;5092055;28;8894;-58
2021/01/10 07:19:16;;;;;;;;;1.00;1.00;19.90;76.00;;;18.78;56.31;102383.03;5109784;28;8841;-58
2021/01/10 07:21:48;;;;;;;;;0.25;0.00;19.90;76.10;;;18.78;56.24;102388.41;5096127;28;8812;-58
2021/01/10 07:24:26;;;;;;;;;0.50;0.00;19.90;76.10;;;18.76;56.18;102377.78;5096681;28;8895;-58
2021/01/10 07:26:59;;;;;;;;;0.75;0.75;19.80;76.10;;;18.77;56.37;102375.97;5098514;28;8912;-58
2021/01/10 07:29:44;;;;;;;;;0.00;0.00;19.90;76.20;;;18.76;56.41;102374.25;5098860;28;8788;-57
2021/01/10 07:32:18;;;;;;;;;0.75;0.75;19.90;76.20;;;18.75;56.28;102376.09;5083145;28;8807;-58
2021/01/10 07:34:45;;;;;;;;;0.25;0.25;19.80;76.10;;;18.75;56.27;102369.81;5103563;28;8878;-58
2021/01/10 07:37:29;;;;;;;;;0.25;0.25;20.00;76.10;;;18.74;56.43;102374.34;5111643;28;8786;-58
2021/01/10 07:40:06;;;;;;;;;1.25;1.00;19.80;76.00;;;18.72;56.17;102380.78;5105712;28;8942;-58
2021/01/10 07:42:42;;;;;;;;;0.25;0.25;19.80;76.00;;;18.71;56.54;102377.25;5104085;28;8784;-58
2021/01/10 07:45:17;;;;;;;;;0.25;0.00;19.90;76.10;;;18.71;56.33;102368.38;5114517;28;8781;-58
2021/01/10 07:47:49;;;;;;;;;1.00;1.00;19.90;76.10;;;18.69;56.31;102365.78;5111904;28;8794;-58
2021/01/10 07:50:16;;;;;;;;;1.00;1.00;19.80;76.00;;;18.68;56.72;102366.78;5103481;28;8836;-58
2021/01/10 07:52:46;;;;;;;;;2.00;1.00;19.80;76.10;;;18.68;56.49;102374.81;5098435;28;8890;-58
2021/01/10 07:55:18;;;;;;;;;0.00;0.00;20.00;76.20;;;18.66;56.47;102379.41;5100440;28;8811;-58
2021/01/10 07:57:54;;;;;;;;;0.00;0.00;20.00;76.30;;;18.64;56.45;102384.88;5103880;28;8812;-58
2021/01/10 08:00:24;;;;;;;;;0.00;0.00;19.80;76.10;;;18.64;56.73;102378.69;5103866;28;8785;-57
2021/01/10 08:03:05;;;;;;;;;1.25;0.50;19.70;76.20;;;18.61;56.79;102357.50;5102508;28;8786;-58
2021/01/10 08:05:54;;;;;;;;;0.50;0.50;19.80;76.30;;;18.61;56.44;102344.13;5107242;28;8786;-58
2021/01/10 08:08:36;;;;;;;;;0.00;0.00;19.70;76.10;;;18.59;56.52;102327.31;5110806;28;8766;-58
2021/01/10 08:11:03;;;;;;;;;1.75;1.00;19.70;76.10;;;18.57;56.52;102327.44;5098390;28;8813;-58
2021/01/10 08:13:46;;;;;;;;;1.00;1.00;19.70;76.10;;;18.54;56.65;102311.59;5094675;28;8830;-58
2021/01/10 08:16:33;;;;;;;;;1.50;1.00;19.90;76.20;;;18.54;56.57;102318.78;5100786;28;8772;-57
2021/01/10 08:19:07;;;;;;;;;0.25;0.25;19.50;76.00;;;18.53;56.53;102315.25;5101828;28;8773;-58
2021/01/10 08:21:34;;;;;;;;;1.00;1.00;19.90;76.20;;;18.51;56.70;102303.81;5106624;28;8782;-57
2021/01/10 08:24:03;;;;;;;;;0.00;0.00;19.70;76.20;;;18.50;56.63;102336.91;5104673;28;8797;-58
2021/01/10 08:26:30;;;;;;;;;0.00;0.00;19.80;76.20;;;18.50;56.83;102325.34;5103205;28;8777;-55
2021/01/10 08:29:06;;;;;;;;;0.00;0.00;19.70;76.20;;;18.48;56.63;102324.59;5106122;28;8809;-57
2021/01/10 08:31:34;;;;;;;;;0.00;0.00;19.60;76.10;;;18.49;56.66;102323.63;5096852;28;8820;-58
2021/01/10 08:34:06;;;;;;;;;1.00;1.00;19.80;76.30;;;18.46;56.89;102308.66;5095124;28;8788;-57
2021/01/10 08:36:35;;;;;;;;;0.00;0.00;19.60;76.10;;;18.44;56.91;102305.22;5094603;28;8922;-57
2021/01/10 08:39:06;;;;;;;;;0.00;0.00;19.70;75.90;;;18.44;56.59;102307.91;5099387;28;8832;-57
2021/01/10 08:41:37;;;;;;;;;0.00;0.00;19.60;76.00;;;18.41;56.83;102305.47;5105043;28;8785;-58
2021/01/10 08:44:10;;;;;;;;;1.00;0.25;19.50;75.90;;;18.41;56.75;102306.31;5103218;28;8789;-58
2021/01/10 08:46:49;;;;;;;;;2.00;2.00;19.60;76.00;;;18.41;56.94;102294.75;5097894;28;8790;-58
2021/01/10 08:49:18;;;;;;;;;1.75;0.00;19.60;76.00;;;18.40;56.72;102277.88;5096906;28;8800;-58
2021/01/10 08:51:48;;;;;;;;;0.00;0.00;19.40;75.90;;;18.37;57.10;102267.41;5104187;28;8777;-58
2021/01/10 08:54:26;;;;;;;;;0.20;0.00;19.60;75.90;;;18.37;56.86;102272.75;5109769;28;9470;-58
2021/01/10 08:56:56;;;;;;;;;1.00;1.00;19.60;76.00;;;18.36;56.91;102271.03;5103687;28;8798;-57
2021/01/10 08:59:35;;;;;;;;;1.50;1.00;19.60;76.10;;;18.36;57.17;102279.06;5097381;28;8789;-58
2021/01/10 09:02:10;;;;;;;;;0.50;0.00;19.60;76.00;;;18.36;57.16;102286.22;5110649;28;8782;-56
2021/01/10 09:04:42;;;;;;;;;1.00;1.00;19.60;75.70;;;18.34;57.14;102285.50;5103844;28;8776;-57
2021/01/10 09:07:12;;;;;;;;;0.25;0.25;19.60;75.60;;;18.33;57.04;102289.16;5097503;28;8802;-58
2021/01/10 09:09:51;;;;;;;;;0.25;0.25;19.70;75.80;;;18.31;57.15;102299.94;5099076;28;8815;-58
2021/01/10 09:12:39;;;;;;;;;0.50;0.50;19.60;75.70;;;18.32;57.39;102300.78;5094202;28;9015;-58
2021/01/10 09:15:21;;;;;;;;;0.00;0.00;19.60;75.70;;;18.28;57.19;102292.16;5095884;28;8810;-58
2021/01/10 09:18:01;;;;;;;;;1.00;1.00;19.60;75.60;;;18.28;57.22;102286.81;5100900;28;8810;-58
2021/01/10 09:20:46;;;;;;;;;1.25;0.25;19.60;75.70;;;18.28;57.28;102281.44;5091996;27;8788;-58
2021/01/10 09:23:13;;;;;;;;;0.00;0.00;19.50;76.10;;;18.27;57.28;102287.78;5103178;28;8814;-58
2021/01/10 09:25:40;;;;;;;;;0.00;0.00;19.60;76.20;;;18.26;57.55;102278.03;5079552;28;8866;-59
2021/01/10 09:28:09;;;;;;;;;0.50;0.00;19.50;76.70;;;18.26;57.57;102277.19;5102651;28;9532;-59
2021/01/10 09:30:44;;;;;;;;;0.00;0.00;19.50;76.10;;;18.24;57.66;102274.63;5114456;28;8802;-59
2021/01/10 09:33:12;;;;;;;;;1.00;0.00;19.50;76.30;;;18.23;57.61;102275.59;5104862;28;9564;-59
2021/01/10 09:35:47;;;;;;;;;1.00;0.00;19.30;76.00;;;18.21;57.71;102278.38;5104909;28;8802;-59
2021/01/10 09:38:23;;;;;;;;;0.67;0.67;19.60;75.80;;;18.21;57.65;102282.88;5101814;28;8782;-58
2021/01/10 09:41:13;;;;;;;;;0.00;0.00;19.50;75.90;;;18.19;57.50;102284.81;5100415;28;8874;-59
2021/01/10 09:43:52;;;;;;;;;0.50;0.50;19.50;75.80;;;18.17;57.63;102292.97;5114155;28;8782;-60
2021/01/10 09:46:40;;;;;;;;;0.75;0.00;19.50;75.80;;;18.16;57.42;102295.75;5104433;28;8898;-59
2021/01/10 09:49:16;;;;;;;;;0.00;0.00;19.60;75.70;;;18.15;57.33;102289.53;5099035;28;8822;-59
2021/01/10 09:51:52;;;;;;;;;0.00;0.00;19.60;75.60;;;18.16;57.52;102282.38;5098660;28;8793;-60
2021/01/10 09:54:32;;;;;;;;;0.00;0.00;19.30;75.80;;;18.12;57.60;102279.09;5084808;28;8796;-60
2021/01/10 09:57:13;;;;;;;;;0.00;0.00;19.30;75.50;;;18.11;57.57;102287.19;5101075;28;8853;-59
2021/01/10 09:59:55;;;;;;;;;0.75;0.00;19.20;75.50;;;18.11;57.44;102292.56;5097165;28;8794;-59
2021/01/10 10:02:38;;;;;;;;;0.00;0.00;19.60;75.80;;;18.09;57.55;102297.16;5096247;28;9480;-60
2021/01/10 10:05:14;;;;;;;;;0.00;0.00;19.40;75.60;;;18.09;57.57;102291.81;5106641;28;8782;-59
2021/01/10 10:08:00;;;;;;;;;0.75;0.00;19.40;75.60;;;18.08;57.70;102295.47;5107423;28;8816;-59
2021/01/10 10:10:32;;;;;;;;;0.00;0.00;19.20;75.40;;;18.08;57.58;102303.47;5092421;28;9599;-59
2021/01/10 10:13:05;;;;;;;;;0.00;0.00;19.50;76.00;;;18.06;57.61;102308.09;5103451;28;8797;-59
2021/01/10 10:15:45;;;;;;;;;0.25;0.00;19.30;75.40;;;18.05;57.50;102315.25;5098855;28;8786;-59
2021/01/10 10:18:42;;;;;;;;;0.00;0.00;19.20;75.30;;;18.04;57.57;102326.06;5094864;28;8792;-59
2021/01/10 10:21:09;;;;;;;;;0.00;0.00;19.40;75.50;;;18.05;57.53;102327.78;5074817;28;8841;-57
2021/01/10 10:23:36;;;;;;;;;0.50;0.00;19.40;75.50;;;18.00;57.52;102320.94;5095360;28;8939;-59
2021/01/10 10:26:04;;;;;;;;;0.00;0.00;19.20;75.40;;;17.99;57.63;102316.56;5105829;28;8790;-58
2021/01/10 10:28:31;;;;;;;;;0.00;0.00;19.50;75.50;;;17.99;57.32;102316.56;5105338;28;8814;-59
2021/01/10 10:30:57;;;;;;;;;0.00;0.00;19.30;75.70;;;17.98;57.75;102322.88;5099428;28;8801;-58
2021/01/10 10:33:24;;;;;;;;;0.00;0.00;19.30;76.00;;;18.00;57.61;102325.44;5094895;28;8838;-56
2021/01/10 10:35:51;;;;;;;;;0.00;0.00;19.30;76.10;;;17.99;57.39;102337.97;5106134;28;8886;-58
2021/01/10 10:38:18;;;;;;;;;0.00;0.00;19.30;76.10;;;17.98;57.58;102330.03;5093209;28;8816;-58
2021/01/10 10:40:44;;;;;;;;;0.00;0.00;19.30;75.90;;;17.98;57.49;102322.00;5099238;28;8805;-59